createdAt,value
2022-11-16T00:01:44.609Z,4.40
2022-11-16T00:04:12.103Z,4.97
2022-11-16T00:06:39.090Z,4.57
2022-11-16T00:09:24.151Z,4.30
2022-11-16T00:11:53.944Z,4.43
2022-11-16T00:14:22.523Z,4.13
2022-11-16T00:16:49.661Z,3.97
2022-11-16T00:19:17.129Z,4.30
2022-11-16T00:21:44.161Z,4.30
2022-11-16T00:24:13.646Z,4.30
2022-11-16T00:26:40.707Z,4.60
2022-11-16T00:29:12.284Z,4.97
2022-11-16T00:31:38.976Z,4.17
2022-11-16T00:34:05.658Z,4.33
2022-11-16T00:36:32.361Z,4.83
2022-11-16T00:38:59.082Z,4.40
2022-11-16T00:41:25.809Z,5.07
2022-11-16T00:43:52.495Z,4.80
2022-11-16T00:46:19.244Z,4.50
2022-11-16T00:48:45.904Z,5.00
2022-11-16T00:51:12.674Z,4.60
2022-11-16T00:53:39.629Z,5.00
2022-11-16T00:56:06.685Z,4.57
2022-11-16T00:58:33.692Z,5.43
2022-11-16T01:01:08.711Z,5.60
2022-11-16T01:03:36.741Z,4.70
2022-11-16T01:06:09.461Z,5.40
2022-11-16T01:08:38.087Z,4.77
2022-11-16T01:11:24.229Z,5.20
2022-11-16T01:13:51.358Z,5.50
2022-11-16T01:16:20.071Z,5.60
2022-11-16T01:18:52.556Z,5.50
2022-11-16T01:21:20.208Z,5.47
2022-11-16T01:23:47.019Z,5.03
2022-11-16T01:26:13.705Z,5.50
2022-11-16T01:28:40.828Z,5.83
2022-11-16T01:31:09.374Z,5.33
2022-11-16T01:33:36.490Z,5.73
2022-11-16T01:36:03.383Z,5.90
2022-11-16T01:38:30.317Z,5.20
2022-11-16T01:40:57.073Z,6.07
2022-11-16T01:43:25.395Z,5.50
2022-11-16T01:45:52.415Z,5.07
2022-11-16T01:48:29.104Z,5.60
2022-11-16T01:50:57.538Z,5.40
2022-11-16T01:53:25.369Z,6.10
2022-11-16T01:55:52.899Z,6.00
2022-11-16T01:58:23.127Z,5.90
2022-11-16T02:00:50.598Z,6.47
2022-11-16T02:03:19.650Z,6.00
2022-11-16T02:06:28.611Z,5.93
2022-11-16T02:09:55.571Z,6.37
2022-11-16T02:12:43.023Z,6.47
2022-11-16T02:15:44.893Z,6.53
2022-11-16T02:18:24.794Z,6.63
2022-11-16T02:21:08.655Z,6.33
2022-11-16T02:23:49.330Z,6.73
2022-11-16T02:26:28.203Z,5.90
2022-11-16T02:29:38.976Z,6.03
2022-11-16T02:32:35.695Z,6.83
2022-11-16T02:35:13.292Z,6.77
2022-11-16T02:37:47.047Z,6.60
2022-11-16T02:40:16.497Z,6.67
2022-11-16T02:42:52.888Z,7.00
2022-11-16T02:45:25.721Z,7.07
2022-11-16T02:47:55.778Z,6.60
2022-11-16T02:50:23.425Z,5.80
2022-11-16T02:52:50.098Z,5.90
2022-11-16T02:55:16.994Z,6.23
2022-11-16T02:57:57.534Z,5.97
2022-11-16T03:00:34.028Z,6.10
2022-11-16T03:03:10.059Z,6.67
2022-11-16T03:05:49.693Z,6.03
2022-11-16T03:08:27.337Z,6.53
2022-11-16T03:11:18.111Z,6.33
2022-11-16T03:13:46.323Z,5.77
2022-11-16T03:16:35.687Z,6.27
2022-11-16T03:19:10.123Z,6.33
2022-11-16T03:21:43.741Z,6.40
2022-11-16T03:24:10.818Z,6.33
2022-11-16T03:27:04.549Z,6.23
2022-11-16T03:29:36.828Z,5.97
2022-11-16T03:32:12.831Z,5.10
2022-11-16T03:34:44.730Z,5.80
2022-11-16T03:37:12.353Z,5.37
2022-11-16T03:39:40.695Z,5.70
2022-11-16T03:42:14.034Z,5.87
2022-11-16T03:44:42.040Z,5.63
2022-11-16T03:47:08.706Z,6.80
2022-11-16T03:49:35.426Z,5.43
2022-11-16T03:52:02.241Z,6.20
2022-11-16T03:54:28.949Z,5.97
2022-11-16T03:56:56.819Z,6.20
2022-11-16T03:59:23.567Z,6.23
2022-11-16T04:01:50.328Z,6.10
2022-11-16T04:04:35.534Z,6.40
2022-11-16T04:07:20.740Z,6.53
2022-11-16T04:10:06.092Z,6.40
2022-11-16T04:12:51.287Z,6.80
2022-11-16T04:15:36.932Z,7.40
2022-11-16T04:18:22.263Z,6.10
2022-11-16T04:21:07.657Z,7.10
2022-11-16T04:23:53.039Z,6.10
2022-11-16T04:26:39.772Z,7.50
2022-11-16T04:29:06.478Z,6.27
2022-11-16T04:31:51.867Z,6.77
2022-11-16T04:34:37.394Z,6.77
2022-11-16T04:37:22.912Z,7.20
2022-11-16T04:39:49.572Z,7.53
2022-11-16T04:42:19.893Z,7.73
2022-11-16T04:45:05.117Z,7.03
2022-11-16T04:47:32.084Z,6.70
2022-11-16T04:49:58.798Z,7.10
2022-11-16T04:52:25.525Z,8.30
2022-11-16T04:54:52.256Z,8.20
2022-11-16T04:57:19.001Z,7.13
2022-11-16T04:59:45.681Z,7.87
2022-11-16T05:02:12.458Z,6.27
2022-11-16T05:04:43.778Z,6.93
2022-11-16T05:07:13.363Z,7.50
2022-11-16T05:09:43.133Z,7.50
2022-11-16T05:12:11.928Z,8.00
2022-11-16T05:14:38.601Z,7.53
2022-11-16T05:17:05.312Z,8.47
2022-11-16T05:19:50.394Z,9.07
2022-11-16T05:22:17.266Z,8.70
2022-11-16T05:24:44.249Z,7.27
2022-11-16T05:27:15.313Z,7.97
2022-11-16T05:29:43.131Z,8.43
2022-11-16T05:32:11.472Z,8.90
2022-11-16T05:34:38.610Z,8.47
2022-11-16T05:37:06.086Z,7.30
2022-11-16T05:39:32.827Z,7.77
2022-11-16T05:41:59.560Z,8.97
2022-11-16T05:44:26.636Z,8.67
2022-11-16T05:46:53.554Z,9.03
2022-11-16T05:49:20.238Z,7.90
2022-11-16T05:51:47.442Z,8.33
2022-11-16T05:54:16.999Z,8.83
2022-11-16T05:56:43.869Z,9.20
2022-11-16T05:59:16.462Z,8.20
2022-11-16T06:01:43.789Z,9.87
2022-11-16T06:04:10.570Z,9.70
2022-11-16T06:06:37.379Z,9.17
2022-11-16T06:09:04.733Z,9.83
2022-11-16T06:11:35.750Z,8.90
2022-11-16T06:14:03.263Z,7.80
2022-11-16T06:16:30.005Z,10.50
2022-11-16T06:18:56.761Z,8.93
2022-11-16T06:21:23.658Z,10.73
2022-11-16T06:23:50.728Z,11.03
2022-11-16T06:26:17.675Z,9.30
2022-11-16T06:28:44.877Z,10.47
2022-11-16T06:31:11.614Z,9.97
2022-11-16T06:33:38.728Z,9.50
2022-11-16T06:36:05.786Z,9.60
2022-11-16T06:38:33.375Z,10.90
2022-11-16T06:41:01.389Z,9.87
2022-11-16T06:43:28.082Z,9.27
2022-11-16T06:45:57.691Z,11.23
2022-11-16T06:48:24.691Z,10.10
2022-11-16T06:50:52.165Z,9.20
2022-11-16T06:53:19.417Z,11.27
2022-11-16T06:55:46.164Z,10.07
2022-11-16T06:58:13.109Z,9.63
2022-11-16T07:00:42.652Z,9.30
2022-11-16T07:03:09.415Z,9.50
2022-11-16T07:05:40.868Z,10.60
2022-11-16T07:08:07.896Z,10.13
2022-11-16T07:10:34.647Z,10.47
2022-11-16T07:13:04.498Z,10.70
2022-11-16T07:15:32.041Z,10.03
2022-11-16T07:18:06.504Z,10.67
2022-11-16T07:20:34.479Z,10.40
2022-11-16T07:23:02.876Z,10.17
2022-11-16T07:25:29.899Z,11.10
2022-11-16T07:27:58.262Z,10.83
2022-11-16T07:30:25.454Z,10.90
2022-11-16T07:32:56.377Z,10.70
2022-11-16T07:35:23.062Z,11.10
2022-11-16T07:37:49.755Z,10.50
2022-11-16T07:40:16.645Z,9.70
2022-11-16T07:42:44.507Z,11.40
2022-11-16T07:45:12.152Z,11.20
2022-11-16T07:47:39.064Z,11.40
2022-11-16T07:50:06.557Z,11.20
2022-11-16T07:52:33.349Z,11.30
2022-11-16T07:55:01.643Z,11.30
2022-11-16T07:57:28.728Z,10.90
2022-11-16T07:59:55.585Z,10.30
2022-11-16T08:02:22.494Z,11.90
2022-11-16T08:04:50.163Z,11.60
2022-11-16T08:07:16.924Z,10.60
2022-11-16T08:09:43.771Z,10.20
2022-11-16T08:12:10.603Z,10.43
2022-11-16T08:14:37.308Z,12.50
2022-11-16T08:17:04.958Z,10.57
2022-11-16T08:19:31.687Z,10.60
2022-11-16T08:21:58.371Z,11.20
2022-11-16T08:24:25.238Z,10.63
2022-11-16T08:26:52.002Z,12.00
2022-11-16T08:29:18.798Z,10.80
2022-11-16T08:31:46.047Z,12.00
2022-11-16T08:34:13.082Z,11.40
2022-11-16T08:36:39.807Z,21.90
2022-11-16T08:39:06.526Z,19.83
2022-11-16T08:41:35.800Z,11.80
2022-11-16T08:44:02.689Z,13.10
2022-11-16T08:46:29.502Z,10.30
2022-11-16T08:48:57.505Z,12.67
2022-11-16T08:51:25.006Z,14.13
2022-11-16T08:53:56.756Z,10.80
2022-11-16T08:56:23.761Z,11.87
2022-11-16T08:58:58.146Z,12.90
2022-11-16T09:01:28.479Z,12.00
2022-11-16T09:03:56.088Z,11.77
2022-11-16T09:06:25.071Z,11.20
2022-11-16T09:08:52.135Z,10.23
2022-11-16T09:11:21.852Z,9.93
2022-11-16T09:13:50.318Z,10.17
2022-11-16T09:16:18.027Z,10.00
2022-11-16T09:18:47.096Z,10.27
2022-11-16T09:21:28.684Z,10.00
2022-11-16T09:23:57.109Z,9.20
2022-11-16T09:26:25.281Z,9.80
2022-11-16T09:28:58.173Z,9.73
2022-11-16T09:31:27.444Z,9.23
2022-11-16T09:33:58.285Z,9.73
2022-11-16T09:36:26.104Z,11.07
2022-11-16T09:39:25.835Z,10.07
2022-11-16T09:41:53.116Z,10.70
2022-11-16T09:44:25.590Z,9.63
2022-11-16T09:47:00.367Z,9.40
2022-11-16T09:49:42.708Z,10.83
2022-11-16T09:52:18.700Z,9.63
2022-11-16T09:54:46.812Z,9.50
2022-11-16T09:57:31.277Z,10.13
2022-11-16T10:00:03.790Z,10.53
2022-11-16T10:02:36.983Z,9.30
2022-11-16T10:05:28.989Z,11.57
2022-11-16T10:08:23.225Z,9.60
2022-11-16T10:11:11.487Z,10.37
2022-11-16T10:14:08.439Z,8.97
2022-11-16T10:16:45.113Z,8.30
2022-11-16T10:19:26.826Z,10.40
2022-11-16T10:22:12.108Z,9.27
2022-11-16T10:24:47.755Z,7.73
2022-11-16T10:27:39.141Z,7.70
2022-11-16T10:30:17.554Z,8.20
2022-11-16T10:32:47.661Z,8.20
2022-11-16T10:35:25.068Z,8.27
2022-11-16T10:37:53.858Z,8.50
2022-11-16T10:40:29.810Z,7.70
2022-11-16T10:43:13.128Z,7.63
2022-11-16T10:45:52.202Z,8.80
2022-11-16T10:48:30.874Z,8.30
2022-11-16T10:50:57.916Z,7.60
2022-11-16T10:53:34.258Z,9.20
2022-11-16T10:56:13.313Z,8.90
2022-11-16T10:59:18.653Z,8.63
2022-11-16T11:01:50.188Z,9.43
2022-11-16T11:04:18.297Z,9.20
2022-11-16T11:06:47.143Z,9.13
2022-11-16T11:09:22.863Z,8.17
2022-11-16T11:12:23.055Z,8.70
2022-11-16T11:15:11.401Z,7.80
2022-11-16T11:17:40.476Z,7.57
2022-11-16T11:20:18.080Z,7.87
2022-11-16T11:22:58.477Z,8.50
2022-11-16T11:25:49.563Z,8.10
2022-11-16T11:28:22.853Z,8.57
2022-11-16T11:31:02.770Z,9.40
2022-11-16T11:33:48.692Z,8.70
2022-11-16T11:36:38.485Z,7.83
2022-11-16T11:39:06.945Z,8.83
2022-11-16T11:42:00.215Z,8.70
2022-11-16T11:44:50.336Z,8.77
2022-11-16T11:47:59.357Z,11.17
2022-11-16T11:50:32.267Z,9.70
2022-11-16T11:53:15.412Z,9.93
2022-11-16T11:55:42.279Z,11.90
2022-11-16T11:58:15.984Z,10.80
2022-11-16T12:00:51.105Z,10.83
2022-11-16T12:03:26.886Z,9.80
2022-11-16T12:05:56.448Z,8.80
2022-11-16T12:08:48.840Z,9.80
2022-11-16T12:11:30.952Z,8.87
2022-11-16T12:14:05.518Z,8.50
2022-11-16T12:17:12.247Z,9.17
2022-11-16T12:20:17.157Z,8.63
2022-11-16T12:23:08.244Z,24.40
2022-11-16T12:25:55.444Z,8.30
2022-11-16T12:28:41.596Z,8.10
2022-11-16T12:31:29.432Z,8.20
2022-11-16T12:34:01.087Z,7.00
2022-11-16T12:36:39.001Z,7.30
2022-11-16T12:39:34.342Z,6.23
2022-11-16T12:42:16.055Z,6.60
2022-11-16T12:45:16.221Z,5.53
2022-11-16T12:47:55.241Z,5.20
2022-11-16T12:50:50.144Z,4.47
2022-11-16T12:53:23.186Z,4.73
2022-11-16T12:56:15.227Z,4.37
2022-11-16T12:58:41.899Z,4.23
2022-11-16T13:01:22.588Z,4.07
2022-11-16T13:04:05.613Z,3.73
2022-11-16T13:06:38.009Z,3.57
2022-11-16T13:09:18.500Z,4.17
2022-11-16T13:11:58.113Z,3.80
2022-11-16T13:14:33.401Z,4.50
2022-11-16T13:17:01.930Z,4.73
2022-11-16T13:19:28.998Z,3.40
2022-11-16T13:22:07.555Z,7.17
2022-11-16T13:24:58.743Z,4.50
2022-11-16T13:27:34.887Z,4.73
2022-11-16T13:30:26.884Z,3.93
2022-11-16T13:33:02.716Z,4.40
2022-11-16T13:35:29.987Z,6.23
2022-11-16T13:37:56.747Z,3.60
2022-11-16T13:40:25.475Z,5.13
2022-11-16T13:43:12.832Z,5.70
2022-11-16T13:46:05.347Z,4.50
2022-11-16T13:48:36.165Z,11.00
2022-11-16T13:51:15.988Z,11.57
2022-11-16T13:56:51.485Z,7.53
2022-11-16T13:59:25.548Z,9.57
2022-11-16T14:02:22.817Z,11.10
2022-11-16T14:04:58.500Z,5.30
2022-11-16T14:07:37.616Z,4.03
2022-11-16T14:10:06.004Z,3.90
2022-11-16T14:12:38.474Z,4.10
2022-11-16T14:15:31.589Z,3.60
2022-11-16T14:18:09.940Z,3.80
2022-11-16T14:20:44.165Z,3.70
2022-11-16T14:23:28.271Z,4.47
2022-11-16T14:26:18.806Z,4.97
2022-11-16T14:29:03.574Z,4.33
2022-11-16T14:31:45.484Z,4.77
2022-11-16T14:34:21.955Z,4.90
2022-11-16T14:36:49.740Z,5.30
2022-11-16T14:39:37.181Z,4.60
2022-11-16T14:42:14.503Z,4.60
2022-11-16T14:44:41.628Z,4.30
2022-11-16T14:47:23.512Z,4.97
2022-11-16T14:49:50.513Z,5.50
2022-11-16T14:52:27.454Z,8.90
2022-11-16T14:54:59.250Z,8.70
2022-11-16T14:57:25.974Z,4.20
2022-11-16T15:00:17.998Z,4.70
2022-11-16T15:02:51.561Z,5.67
2022-11-16T15:05:26.849Z,4.90
2022-11-16T15:07:54.471Z,4.63
2022-11-16T15:10:25.022Z,4.87
2022-11-16T15:12:53.797Z,4.67
2022-11-16T15:15:26.681Z,6.33
2022-11-16T15:17:59.139Z,4.60
2022-11-16T15:20:29.217Z,5.37
2022-11-16T15:22:58.606Z,4.50
2022-11-16T15:25:42.573Z,5.13
2022-11-16T15:28:18.345Z,5.20
2022-11-16T15:30:54.766Z,3.93
2022-11-16T15:33:45.578Z,5.10
2022-11-16T15:36:32.170Z,5.32
2022-11-16T15:39:01.001Z,5.90
2022-11-16T15:41:29.275Z,6.17
2022-11-16T15:44:14.183Z,6.67
2022-11-16T15:46:44.380Z,5.23
2022-11-16T15:49:24.700Z,5.97
2022-11-16T15:51:51.462Z,5.87
2022-11-16T15:54:51.156Z,6.03
2022-11-16T15:57:19.393Z,13.73
2022-11-16T15:59:54.587Z,14.23
2022-11-16T16:02:24.880Z,10.70
2022-11-16T16:04:51.839Z,9.00
2022-11-16T16:07:42.495Z,7.87
2022-11-16T16:10:27.694Z,10.83
2022-11-16T16:13:01.993Z,11.50
2022-11-16T16:15:29.925Z,10.90
2022-11-16T16:17:58.775Z,10.50
2022-11-16T16:20:31.855Z,9.03
2022-11-16T16:23:11.814Z,9.20
2022-11-16T16:25:38.504Z,8.07
2022-11-16T16:28:05.689Z,9.33
2022-11-16T16:30:34.736Z,9.87
2022-11-16T16:33:02.353Z,9.10
2022-11-16T16:35:29.337Z,9.97
2022-11-16T16:38:01.101Z,11.63
2022-11-16T16:40:28.759Z,13.47
2022-11-16T16:42:56.734Z,12.13
2022-11-16T16:45:35.073Z,12.80
2022-11-16T16:48:01.770Z,11.80
2022-11-16T16:50:28.805Z,14.57
2022-11-16T16:52:55.555Z,11.43
2022-11-16T16:55:22.381Z,11.17
2022-11-16T16:57:49.553Z,11.23
2022-11-16T17:00:16.936Z,10.90
2022-11-16T17:02:43.837Z,13.20
2022-11-16T17:05:10.964Z,12.80
2022-11-16T17:07:37.754Z,14.77
2022-11-16T17:10:04.918Z,16.40
2022-11-16T17:12:31.680Z,77.83
2022-11-16T17:14:58.461Z,113.03
2022-11-16T17:17:25.493Z,12.63
2022-11-16T17:19:52.842Z,11.90
2022-11-16T17:22:20.574Z,12.57
2022-11-16T17:24:47.732Z,12.30
2022-11-16T17:27:14.452Z,13.33
2022-11-16T17:29:41.201Z,15.00
2022-11-16T17:32:08.041Z,13.60
2022-11-16T17:34:35.163Z,15.77
2022-11-16T17:37:01.949Z,16.90
2022-11-16T17:39:28.639Z,20.37
2022-11-16T17:41:55.321Z,24.10
2022-11-16T17:44:22.446Z,22.50
2022-11-16T17:46:49.547Z,18.77
2022-11-16T17:49:16.755Z,17.80
2022-11-16T17:51:43.608Z,21.03
2022-11-16T17:54:10.730Z,24.17
2022-11-16T17:56:37.796Z,25.80
2022-11-16T17:59:04.541Z,24.60
2022-11-16T18:01:31.452Z,28.60
2022-11-16T18:04:00.333Z,25.87
2022-11-16T18:06:27.492Z,32.13
2022-11-16T18:08:54.747Z,24.33
2022-11-16T18:11:24.434Z,21.60
2022-11-16T18:13:59.041Z,18.90
2022-11-16T18:16:31.839Z,25.90
2022-11-16T18:19:00.901Z,24.27
2022-11-16T18:21:28.427Z,20.87
2022-11-16T18:23:55.495Z,23.17
2022-11-16T18:26:23.732Z,28.40
2022-11-16T18:28:51.882Z,28.43
2022-11-16T18:31:21.013Z,26.87
2022-11-16T18:33:49.410Z,25.07
2022-11-16T18:36:20.165Z,28.00
2022-11-16T18:38:47.586Z,29.50
2022-11-16T18:41:14.308Z,26.27
2022-11-16T18:44:02.952Z,30.57
2022-11-16T18:46:33.210Z,33.00
2022-11-16T18:49:00.383Z,28.07
2022-11-16T18:51:28.813Z,23.87
2022-11-16T18:53:56.353Z,22.67
2022-11-16T18:56:23.592Z,27.03
2022-11-16T18:58:52.227Z,25.53
2022-11-16T19:01:22.136Z,28.07
2022-11-16T19:03:49.279Z,29.90
2022-11-16T19:06:17.752Z,27.20
2022-11-16T19:08:49.060Z,25.27
2022-11-16T19:11:20.773Z,27.03
2022-11-16T19:13:56.797Z,29.90
2022-11-16T19:16:24.601Z,26.00
2022-11-16T19:18:51.623Z,30.27
2022-11-16T19:21:19.082Z,32.70
2022-11-16T19:23:48.288Z,24.73
2022-11-16T19:26:17.506Z,21.50
2022-11-16T19:28:46.440Z,21.40
2022-11-16T19:31:18.701Z,21.30
2022-11-16T19:33:46.119Z,20.20
2022-11-16T19:36:18.799Z,17.37
2022-11-16T19:38:47.090Z,17.90
2022-11-16T19:41:16.474Z,17.30
2022-11-16T19:43:43.665Z,17.50
2022-11-16T19:46:20.283Z,18.60
2022-11-16T19:48:49.308Z,17.17
2022-11-16T19:51:19.513Z,18.73
2022-11-16T19:53:46.624Z,17.17
2022-11-16T19:56:15.833Z,16.43
2022-11-16T19:58:43.483Z,17.33
2022-11-16T20:01:12.907Z,22.00
2022-11-16T20:03:42.624Z,19.27
2022-11-16T20:06:12.203Z,20.13
2022-11-16T20:08:42.437Z,18.67
2022-11-16T20:11:13.126Z,20.13
2022-11-16T20:13:41.942Z,21.10
2022-11-16T20:16:11.026Z,20.90
2022-11-16T20:18:38.696Z,22.67
2022-11-16T20:21:06.331Z,21.00
2022-11-16T20:23:37.615Z,22.07
2022-11-16T20:26:09.647Z,21.70
2022-11-16T20:28:41.667Z,23.80
2022-11-16T20:31:14.779Z,21.53
2022-11-16T20:33:41.727Z,20.47
2022-11-16T20:36:11.085Z,22.20
2022-11-16T20:38:39.181Z,24.00
2022-11-16T20:41:09.087Z,25.50
2022-11-16T20:43:36.688Z,24.50
2022-11-16T20:46:03.687Z,23.37
2022-11-16T20:48:30.412Z,24.07
2022-11-16T20:50:57.086Z,24.70
2022-11-16T20:53:24.135Z,20.50
2022-11-16T20:55:50.982Z,22.03
2022-11-16T20:58:22.612Z,22.37
2022-11-16T21:00:50.885Z,19.80
2022-11-16T21:03:17.647Z,18.50
2022-11-16T21:05:46.122Z,19.90
2022-11-16T21:08:12.961Z,17.63
2022-11-16T21:10:40.066Z,15.70
2022-11-16T21:13:30.898Z,15.40
2022-11-16T21:16:03.197Z,17.17
2022-11-16T21:18:30.951Z,17.80
2022-11-16T21:21:08.189Z,17.83
2022-11-16T21:23:36.436Z,18.27
2022-11-16T21:26:11.128Z,19.43
2022-11-16T21:28:38.679Z,17.93
2022-11-16T21:31:09.832Z,18.77
2022-11-16T21:33:37.265Z,17.13
2022-11-16T21:36:11.916Z,18.37
2022-11-16T21:38:39.084Z,17.77
2022-11-16T21:41:06.766Z,17.90
2022-11-16T21:43:36.092Z,17.53
2022-11-16T21:46:09.674Z,17.57
2022-11-16T21:48:37.267Z,17.93
2022-11-16T21:51:12.357Z,17.40
2022-11-16T21:53:39.763Z,16.73
2022-11-16T21:56:10.300Z,19.10
2022-11-16T21:58:38.987Z,19.20
2022-11-16T22:01:06.071Z,16.33
2022-11-16T22:03:33.774Z,16.43
2022-11-16T22:06:20.958Z,17.70
2022-11-16T22:08:48.532Z,16.70
2022-11-16T22:11:16.337Z,15.93
2022-11-16T22:13:43.712Z,18.63
2022-11-16T22:16:17.297Z,17.13
2022-11-16T22:18:44.202Z,16.30
2022-11-16T22:21:11.368Z,16.50
2022-11-16T22:23:38.499Z,17.00
2022-11-16T22:26:08.055Z,16.67
2022-11-16T22:28:35.665Z,19.20
2022-11-16T22:31:04.212Z,20.47
2022-11-16T22:33:31.720Z,19.60
2022-11-16T22:35:58.647Z,18.33
2022-11-16T22:38:26.258Z,18.83
2022-11-16T22:40:54.731Z,17.80
2022-11-16T22:43:26.860Z,19.90
2022-11-16T22:46:04.967Z,17.00
2022-11-16T22:48:38.874Z,16.90
2022-11-16T22:51:20.410Z,16.80
2022-11-16T22:53:47.283Z,18.20
2022-11-16T22:56:14.220Z,16.87
2022-11-16T22:58:41.167Z,16.10
2022-11-16T23:01:08.976Z,17.77
2022-11-16T23:03:36.514Z,17.30
2022-11-16T23:06:05.320Z,16.70
2022-11-16T23:08:33.229Z,16.63
2022-11-16T23:11:32.251Z,17.60
2022-11-16T23:14:18.128Z,17.87
2022-11-16T23:16:45.613Z,21.60
2022-11-16T23:19:33.409Z,17.70
2022-11-16T23:22:18.847Z,17.97
2022-11-16T23:25:04.584Z,17.77
2022-11-16T23:27:37.132Z,18.30
2022-11-16T23:30:11.890Z,16.93
2022-11-16T23:32:39.454Z,17.50
2022-11-16T23:35:06.542Z,16.60
2022-11-16T23:37:33.308Z,15.70
2022-11-16T23:40:00.039Z,16.70
2022-11-16T23:42:45.540Z,15.30
2022-11-16T23:45:12.233Z,16.67
2022-11-16T23:47:38.923Z,14.40
2022-11-16T23:50:05.919Z,14.97
2022-11-16T23:52:32.615Z,17.73
2022-11-16T23:54:59.268Z,14.80
2022-11-16T23:57:26.102Z,16.80
2022-11-16T23:59:52.828Z,15.23
